sensor_id;sensor_type;location;lat;lon;timestamp;P1;durP1;ratioP1;P2;durP2;ratioP2
12052;SDS011;6087;48.982;12.064;2022-08-27T00:02:25;6.03;;;5.40;;
12052;SDS011;6087;48.982;12.064;2022-08-27T00:05:00;11.32;;;6.07;;
12052;SDS011;6087;48.982;12.064;2022-08-27T00:07:39;7.40;;;6.20;;
12052;SDS011;6087;48.982;12.064;2022-08-27T00:10:44;8.55;;;5.75;;
12052;SDS011;6087;48.982;12.064;2022-08-27T00:13:30;7.25;;;5.55;;
12052;SDS011;6087;48.982;12.064;2022-08-27T00:16:06;6.78;;;5.57;;
12052;SDS011;6087;48.982;12.064;2022-08-27T00:18:38;7.63;;;5.50;;
12052;SDS011;6087;48.982;12.064;2022-08-27T00:21:34;7.72;;;5.88;;
12052;SDS011;6087;48.982;12.064;2022-08-27T00:24:14;7.18;;;5.35;;
12052;SDS011;6087;48.982;12.064;2022-08-27T00:26:50;7.03;;;6.03;;
12052;SDS011;6087;48.982;12.064;2022-08-27T00:29:34;8.18;;;5.40;;
12052;SDS011;6087;48.982;12.064;2022-08-27T00:32:15;8.38;;;5.10;;
12052;SDS011;6087;48.982;12.064;2022-08-27T00:34:50;10.20;;;5.72;;
12052;SDS011;6087;48.982;12.064;2022-08-27T00:37:30;7.72;;;5.85;;
12052;SDS011;6087;48.982;12.064;2022-08-27T00:40:03;6.20;;;5.60;;
12052;SDS011;6087;48.982;12.064;2022-08-27T00:43:00;6.47;;;4.85;;
12052;SDS011;6087;48.982;12.064;2022-08-27T00:45:42;7.70;;;5.88;;
12052;SDS011;6087;48.982;12.064;2022-08-27T00:48:28;6.60;;;6.00;;
12052;SDS011;6087;48.982;12.064;2022-08-27T00:51:03;7.40;;;5.38;;
12052;SDS011;6087;48.982;12.064;2022-08-27T00:53:45;6.97;;;5.80;;
12052;SDS011;6087;48.982;12.064;2022-08-27T00:56:20;6.68;;;5.93;;
12052;SDS011;6087;48.982;12.064;2022-08-27T00:59:04;9.60;;;5.85;;
12052;SDS011;6087;48.982;12.064;2022-08-27T01:01:46;6.80;;;5.65;;
12052;SDS011;6087;48.982;12.064;2022-08-27T01:04:35;7.72;;;5.97;;
12052;SDS011;6087;48.982;12.064;2022-08-27T01:07:35;9.05;;;6.03;;
12052;SDS011;6087;48.982;12.064;2022-08-27T01:10:21;8.05;;;5.57;;
12052;SDS011;6087;48.982;12.064;2022-08-27T01:12:58;9.60;;;6.32;;
12052;SDS011;6087;48.982;12.064;2022-08-27T01:15:33;7.03;;;6.15;;
12052;SDS011;6087;48.982;12.064;2022-08-27T01:18:09;8.32;;;6.95;;
12052;SDS011;6087;48.982;12.064;2022-08-27T01:20:48;8.00;;;6.72;;
12052;SDS011;6087;48.982;12.064;2022-08-27T01:23:30;7.60;;;6.63;;
12052;SDS011;6087;48.982;12.064;2022-08-27T01:26:08;8.02;;;6.28;;
12052;SDS011;6087;48.982;12.064;2022-08-27T01:28:46;9.07;;;6.28;;
12052;SDS011;6087;48.982;12.064;2022-08-27T01:31:21;6.70;;;6.00;;
12052;SDS011;6087;48.982;12.064;2022-08-27T01:34:04;8.20;;;6.63;;
12052;SDS011;6087;48.982;12.064;2022-08-27T01:36:59;8.35;;;6.60;;
12052;SDS011;6087;48.982;12.064;2022-08-27T01:39:30;8.23;;;6.50;;
12052;SDS011;6087;48.982;12.064;2022-08-27T01:42:07;7.30;;;6.10;;
12052;SDS011;6087;48.982;12.064;2022-08-27T01:44:45;8.13;;;6.60;;
12052;SDS011;6087;48.982;12.064;2022-08-27T01:47:17;7.30;;;6.53;;
12052;SDS011;6087;48.982;12.064;2022-08-27T01:50:00;7.35;;;6.60;;
12052;SDS011;6087;48.982;12.064;2022-08-27T01:52:31;7.65;;;6.90;;
12052;SDS011;6087;48.982;12.064;2022-08-27T01:55:12;7.55;;;6.85;;
12052;SDS011;6087;48.982;12.064;2022-08-27T01:57:51;7.72;;;6.25;;
12052;SDS011;6087;48.982;12.064;2022-08-27T02:00:34;7.35;;;5.90;;
12052;SDS011;6087;48.982;12.064;2022-08-27T02:03:29;7.13;;;5.90;;
12052;SDS011;6087;48.982;12.064;2022-08-27T02:06:29;7.00;;;5.93;;
12052;SDS011;6087;48.982;12.064;2022-08-27T02:09:30;8.02;;;5.95;;
12052;SDS011;6087;48.982;12.064;2022-08-27T02:12:07;8.25;;;6.80;;
12052;SDS011;6087;48.982;12.064;2022-08-27T02:18:10;10.85;;;6.40;;
12052;SDS011;6087;48.982;12.064;2022-08-27T02:20:46;8.85;;;6.82;;
12052;SDS011;6087;48.982;12.064;2022-08-27T02:23:33;7.00;;;6.30;;
12052;SDS011;6087;48.982;12.064;2022-08-27T02:26:06;8.27;;;6.22;;
12052;SDS011;6087;48.982;12.064;2022-08-27T02:28:54;8.57;;;6.28;;
12052;SDS011;6087;48.982;12.064;2022-08-27T02:31:52;9.23;;;6.93;;
12052;SDS011;6087;48.982;12.064;2022-08-27T02:34:34;7.32;;;6.60;;
12052;SDS011;6087;48.982;12.064;2022-08-27T02:37:07;9.07;;;7.68;;
12052;SDS011;6087;48.982;12.064;2022-08-27T02:39:35;8.65;;;7.10;;
12052;SDS011;6087;48.982;12.064;2022-08-27T02:42:03;8.52;;;6.95;;
12052;SDS011;6087;48.982;12.064;2022-08-27T02:44:32;8.35;;;6.90;;
12052;SDS011;6087;48.982;12.064;2022-08-27T02:47:02;8.00;;;6.80;;
12052;SDS011;6087;48.982;12.064;2022-08-27T02:49:35;8.00;;;6.13;;
12052;SDS011;6087;48.982;12.064;2022-08-27T02:52:06;9.05;;;6.60;;
12052;SDS011;6087;48.982;12.064;2022-08-27T02:54:37;6.88;;;6.20;;
12052;SDS011;6087;48.982;12.064;2022-08-27T02:57:08;8.70;;;6.30;;
12052;SDS011;6087;48.982;12.064;2022-08-27T02:59:48;9.38;;;6.72;;
12052;SDS011;6087;48.982;12.064;2022-08-27T03:02:27;7.32;;;6.47;;
12052;SDS011;6087;48.982;12.064;2022-08-27T03:05:14;8.68;;;7.20;;
12052;SDS011;6087;48.982;12.064;2022-08-27T03:08:04;11.05;;;6.88;;
12052;SDS011;6087;48.982;12.064;2022-08-27T03:10:46;8.00;;;6.05;;
12052;SDS011;6087;48.982;12.064;2022-08-27T03:13:33;6.95;;;6.18;;
12052;SDS011;6087;48.982;12.064;2022-08-27T03:16:22;7.55;;;6.53;;
12052;SDS011;6087;48.982;12.064;2022-08-27T03:19:10;7.55;;;6.60;;
12052;SDS011;6087;48.982;12.064;2022-08-27T03:21:46;7.82;;;5.72;;
12052;SDS011;6087;48.982;12.064;2022-08-27T03:24:32;10.63;;;6.63;;
12052;SDS011;6087;48.982;12.064;2022-08-27T03:27:39;6.13;;;5.53;;
12052;SDS011;6087;48.982;12.064;2022-08-27T03:30:40;7.88;;;6.20;;
12052;SDS011;6087;48.982;12.064;2022-08-27T03:33:17;7.00;;;6.30;;
12052;SDS011;6087;48.982;12.064;2022-08-27T03:36:02;6.43;;;5.85;;
12052;SDS011;6087;48.982;12.064;2022-08-27T03:38:41;7.15;;;6.03;;
12052;SDS011;6087;48.982;12.064;2022-08-27T03:41:13;6.72;;;5.35;;
12052;SDS011;6087;48.982;12.064;2022-08-27T03:44:54;6.20;;;5.60;;
12052;SDS011;6087;48.982;12.064;2022-08-27T03:46:49;6.47;;;5.25;;
12052;SDS011;6087;48.982;12.064;2022-08-27T03:49:21;6.22;;;5.63;;
12052;SDS011;6087;48.982;12.064;2022-08-27T03:52:14;6.55;;;5.85;;
12052;SDS011;6087;48.982;12.064;2022-08-27T03:54:49;8.15;;;6.00;;
12052;SDS011;6087;48.982;12.064;2022-08-27T03:57:19;6.40;;;5.80;;
12052;SDS011;6087;48.982;12.064;2022-08-27T04:00:14;6.85;;;5.93;;
12052;SDS011;6087;48.982;12.064;2022-08-27T04:03:02;6.72;;;6.03;;
12052;SDS011;6087;48.982;12.064;2022-08-27T04:06:06;8.15;;;6.13;;
12052;SDS011;6087;48.982;12.064;2022-08-27T04:08:43;7.15;;;6.00;;
12052;SDS011;6087;48.982;12.064;2022-08-27T04:11:26;8.23;;;7.30;;
12052;SDS011;6087;48.982;12.064;2022-08-27T04:14:12;8.13;;;6.07;;
12052;SDS011;6087;48.982;12.064;2022-08-27T04:17:02;9.57;;;7.20;;
12052;SDS011;6087;48.982;12.064;2022-08-27T04:19:47;11.35;;;7.35;;
12052;SDS011;6087;48.982;12.064;2022-08-27T04:22:39;6.47;;;5.80;;
12052;SDS011;6087;48.982;12.064;2022-08-27T04:25:22;6.85;;;5.95;;
12052;SDS011;6087;48.982;12.064;2022-08-27T04:28:00;8.73;;;7.40;;
12052;SDS011;6087;48.982;12.064;2022-08-27T04:30:49;9.45;;;7.13;;
12052;SDS011;6087;48.982;12.064;2022-08-27T04:33:41;9.23;;;7.38;;
12052;SDS011;6087;48.982;12.064;2022-08-27T04:36:38;8.20;;;7.07;;
12052;SDS011;6087;48.982;12.064;2022-08-27T04:39:14;9.88;;;6.78;;
12052;SDS011;6087;48.982;12.064;2022-08-27T04:42:34;7.65;;;6.82;;
12052;SDS011;6087;48.982;12.064;2022-08-27T04:45:25;15.50;;;8.80;;
12052;SDS011;6087;48.982;12.064;2022-08-27T04:48:01;8.35;;;6.88;;
12052;SDS011;6087;48.982;12.064;2022-08-27T04:50:46;8.63;;;7.53;;
12052;SDS011;6087;48.982;12.064;2022-08-27T04:53:33;9.18;;;7.32;;
12052;SDS011;6087;48.982;12.064;2022-08-27T04:56:33;10.68;;;7.72;;
12052;SDS011;6087;48.982;12.064;2022-08-27T05:02:51;9.57;;;8.23;;
12052;SDS011;6087;48.982;12.064;2022-08-27T05:05:21;8.60;;;7.70;;
12052;SDS011;6087;48.982;12.064;2022-08-27T05:11:08;8.65;;;7.85;;
12052;SDS011;6087;48.982;12.064;2022-08-27T05:17:17;7.53;;;6.72;;
12052;SDS011;6087;48.982;12.064;2022-08-27T05:20:00;12.05;;;8.45;;
12052;SDS011;6087;48.982;12.064;2022-08-27T05:23:08;7.78;;;6.97;;
12052;SDS011;6087;48.982;12.064;2022-08-27T05:26:15;10.65;;;7.80;;
12052;SDS011;6087;48.982;12.064;2022-08-27T05:29:24;10.20;;;8.45;;
12052;SDS011;6087;48.982;12.064;2022-08-27T05:32:30;8.85;;;8.00;;
12052;SDS011;6087;48.982;12.064;2022-08-27T05:35:23;9.95;;;8.23;;
12052;SDS011;6087;48.982;12.064;2022-08-27T05:38:21;11.23;;;7.97;;
12052;SDS011;6087;48.982;12.064;2022-08-27T05:44:18;10.57;;;8.45;;
12052;SDS011;6087;48.982;12.064;2022-08-27T05:47:04;9.07;;;8.10;;
12052;SDS011;6087;48.982;12.064;2022-08-27T05:49:56;9.40;;;7.38;;
12052;SDS011;6087;48.982;12.064;2022-08-27T05:52:36;9.23;;;7.97;;
12052;SDS011;6087;48.982;12.064;2022-08-27T05:55:24;9.20;;;7.80;;
12052;SDS011;6087;48.982;12.064;2022-08-27T05:58:10;10.30;;;7.97;;
12052;SDS011;6087;48.982;12.064;2022-08-27T06:01:04;9.63;;;7.57;;
12052;SDS011;6087;48.982;12.064;2022-08-27T06:03:34;8.45;;;7.57;;
12052;SDS011;6087;48.982;12.064;2022-08-27T06:06:13;9.45;;;8.00;;
12052;SDS011;6087;48.982;12.064;2022-08-27T06:08:47;9.55;;;8.05;;
12052;SDS011;6087;48.982;12.064;2022-08-27T06:11:31;8.82;;;7.93;;
12052;SDS011;6087;48.982;12.064;2022-08-27T06:14:04;10.00;;;7.20;;
12052;SDS011;6087;48.982;12.064;2022-08-27T06:17:03;11.48;;;8.45;;
12052;SDS011;6087;48.982;12.064;2022-08-27T06:19:50;9.48;;;8.50;;
12052;SDS011;6087;48.982;12.064;2022-08-27T06:22:24;10.63;;;7.88;;
12052;SDS011;6087;48.982;12.064;2022-08-27T06:24:58;9.48;;;7.70;;
12052;SDS011;6087;48.982;12.064;2022-08-27T06:27:30;8.95;;;7.82;;
12052;SDS011;6087;48.982;12.064;2022-08-27T06:30:02;10.02;;;8.18;;
12052;SDS011;6087;48.982;12.064;2022-08-27T06:32:32;10.70;;;8.80;;
12052;SDS011;6087;48.982;12.064;2022-08-27T06:35:04;8.93;;;7.38;;
12052;SDS011;6087;48.982;12.064;2022-08-27T06:37:43;9.30;;;8.35;;
12052;SDS011;6087;48.982;12.064;2022-08-27T06:40:16;9.88;;;7.90;;
12052;SDS011;6087;48.982;12.064;2022-08-27T06:42:48;9.10;;;7.88;;
12052;SDS011;6087;48.982;12.064;2022-08-27T06:45:17;8.75;;;7.72;;
12052;SDS011;6087;48.982;12.064;2022-08-27T06:47:52;10.35;;;7.47;;
12052;SDS011;6087;48.982;12.064;2022-08-27T06:50:31;13.10;;;7.90;;
12052;SDS011;6087;48.982;12.064;2022-08-27T06:53:21;10.05;;;7.88;;
12052;SDS011;6087;48.982;12.064;2022-08-27T06:56:10;9.30;;;8.00;;
12052;SDS011;6087;48.982;12.064;2022-08-27T06:58:45;10.48;;;7.85;;
12052;SDS011;6087;48.982;12.064;2022-08-27T07:01:20;8.55;;;7.55;;
12052;SDS011;6087;48.982;12.064;2022-08-27T07:03:54;8.90;;;7.93;;
12052;SDS011;6087;48.982;12.064;2022-08-27T07:09:26;9.27;;;7.20;;
12052;SDS011;6087;48.982;12.064;2022-08-27T07:12:08;10.02;;;7.53;;
12052;SDS011;6087;48.982;12.064;2022-08-27T07:14:53;8.35;;;7.53;;
12052;SDS011;6087;48.982;12.064;2022-08-27T07:17:33;11.43;;;8.05;;
12052;SDS011;6087;48.982;12.064;2022-08-27T07:20:14;13.77;;;8.27;;
12052;SDS011;6087;48.982;12.064;2022-08-27T07:23:21;7.97;;;7.18;;
12052;SDS011;6087;48.982;12.064;2022-08-27T07:25:57;11.68;;;8.35;;
12052;SDS011;6087;48.982;12.064;2022-08-27T07:28:46;9.88;;;7.95;;
12052;SDS011;6087;48.982;12.064;2022-08-27T07:31:52;9.35;;;6.85;;
12052;SDS011;6087;48.982;12.064;2022-08-27T07:34:35;8.45;;;7.47;;
12052;SDS011;6087;48.982;12.064;2022-08-27T07:37:11;9.45;;;7.72;;
12052;SDS011;6087;48.982;12.064;2022-08-27T07:39:59;14.50;;;8.55;;
12052;SDS011;6087;48.982;12.064;2022-08-27T07:42:42;9.55;;;7.68;;
12052;SDS011;6087;48.982;12.064;2022-08-27T07:45:30;10.82;;;8.15;;
12052;SDS011;6087;48.982;12.064;2022-08-27T07:48:24;9.40;;;7.97;;
12052;SDS011;6087;48.982;12.064;2022-08-27T07:51:02;10.02;;;7.78;;
12052;SDS011;6087;48.982;12.064;2022-08-27T07:53:46;10.27;;;8.02;;
12052;SDS011;6087;48.982;12.064;2022-08-27T07:56:26;9.15;;;8.23;;
12052;SDS011;6087;48.982;12.064;2022-08-27T07:59:29;9.52;;;7.78;;
12052;SDS011;6087;48.982;12.064;2022-08-27T08:02:21;9.18;;;7.45;;
12052;SDS011;6087;48.982;12.064;2022-08-27T08:05:02;10.07;;;7.72;;
12052;SDS011;6087;48.982;12.064;2022-08-27T08:07:41;9.70;;;7.75;;
12052;SDS011;6087;48.982;12.064;2022-08-27T08:10:11;9.07;;;7.78;;
12052;SDS011;6087;48.982;12.064;2022-08-27T08:12:58;12.35;;;8.10;;
12052;SDS011;6087;48.982;12.064;2022-08-27T08:15:44;8.32;;;7.45;;
12052;SDS011;6087;48.982;12.064;2022-08-27T08:18:19;9.18;;;7.82;;
12052;SDS011;6087;48.982;12.064;2022-08-27T08:20:48;9.52;;;8.30;;
12052;SDS011;6087;48.982;12.064;2022-08-27T08:23:38;8.13;;;7.38;;
12052;SDS011;6087;48.982;12.064;2022-08-27T08:26:37;10.93;;;8.05;;
12052;SDS011;6087;48.982;12.064;2022-08-27T08:29:39;9.73;;;8.20;;
12052;SDS011;6087;48.982;12.064;2022-08-27T08:32:18;9.20;;;8.27;;
12052;SDS011;6087;48.982;12.064;2022-08-27T08:35:25;10.35;;;9.32;;
12052;SDS011;6087;48.982;12.064;2022-08-27T08:37:56;11.80;;;9.60;;
12052;SDS011;6087;48.982;12.064;2022-08-27T08:40:29;10.48;;;8.73;;
12052;SDS011;6087;48.982;12.064;2022-08-27T08:43:12;11.90;;;9.27;;
12052;SDS011;6087;48.982;12.064;2022-08-27T08:46:01;13.52;;;10.98;;
12052;SDS011;6087;48.982;12.064;2022-08-27T08:48:44;12.77;;;10.98;;
12052;SDS011;6087;48.982;12.064;2022-08-27T08:52:00;12.02;;;9.38;;
12052;SDS011;6087;48.982;12.064;2022-08-27T08:54:17;11.15;;;10.10;;
12052;SDS011;6087;48.982;12.064;2022-08-27T08:56:58;11.05;;;8.55;;
12052;SDS011;6087;48.982;12.064;2022-08-27T08:59:36;10.45;;;9.23;;
12052;SDS011;6087;48.982;12.064;2022-08-27T09:02:16;10.23;;;9.15;;
12052;SDS011;6087;48.982;12.064;2022-08-27T09:04:55;13.63;;;10.90;;
12052;SDS011;6087;48.982;12.064;2022-08-27T09:07:51;12.23;;;10.85;;
12052;SDS011;6087;48.982;12.064;2022-08-27T09:10:47;12.20;;;9.68;;
12052;SDS011;6087;48.982;12.064;2022-08-27T09:13:32;10.98;;;9.88;;
12052;SDS011;6087;48.982;12.064;2022-08-27T09:16:17;13.65;;;9.68;;
12052;SDS011;6087;48.982;12.064;2022-08-27T09:18:47;12.07;;;10.07;;
12052;SDS011;6087;48.982;12.064;2022-08-27T09:21:22;13.85;;;10.05;;
12052;SDS011;6087;48.982;12.064;2022-08-27T09:24:02;11.73;;;9.05;;
12052;SDS011;6087;48.982;12.064;2022-08-27T09:26:40;11.38;;;10.07;;
12052;SDS011;6087;48.982;12.064;2022-08-27T09:29:24;10.02;;;9.05;;
12052;SDS011;6087;48.982;12.064;2022-08-27T09:32:00;10.85;;;9.75;;
12052;SDS011;6087;48.982;12.064;2022-08-27T09:34:38;10.55;;;8.88;;
12052;SDS011;6087;48.982;12.064;2022-08-27T09:37:29;10.18;;;9.07;;
12052;SDS011;6087;48.982;12.064;2022-08-27T09:40:24;9.77;;;8.50;;
12052;SDS011;6087;48.982;12.064;2022-08-27T09:43:04;10.05;;;8.63;;
12052;SDS011;6087;48.982;12.064;2022-08-27T09:45:49;12.20;;;10.85;;
12052;SDS011;6087;48.982;12.064;2022-08-27T09:48:27;10.48;;;9.25;;
12052;SDS011;6087;48.982;12.064;2022-08-27T09:51:01;10.60;;;8.23;;
12052;SDS011;6087;48.982;12.064;2022-08-27T09:53:42;12.57;;;9.40;;
12052;SDS011;6087;48.982;12.064;2022-08-27T09:56:24;13.88;;;9.95;;
12052;SDS011;6087;48.982;12.064;2022-08-27T09:59:06;10.00;;;9.00;;
12052;SDS011;6087;48.982;12.064;2022-08-27T10:01:48;12.07;;;9.98;;
12052;SDS011;6087;48.982;12.064;2022-08-27T10:04:33;11.80;;;9.82;;
12052;SDS011;6087;48.982;12.064;2022-08-27T10:07:19;13.40;;;10.32;;
12052;SDS011;6087;48.982;12.064;2022-08-27T10:10:07;11.43;;;10.15;;
12052;SDS011;6087;48.982;12.064;2022-08-27T10:14:22;12.00;;;10.48;;
12052;SDS011;6087;48.982;12.064;2022-08-27T10:15:54;12.05;;;10.68;;
12052;SDS011;6087;48.982;12.064;2022-08-27T10:18:45;15.07;;;11.75;;
12052;SDS011;6087;48.982;12.064;2022-08-27T10:21:23;20.10;;;11.88;;
12052;SDS011;6087;48.982;12.064;2022-08-27T10:24:08;18.20;;;10.35;;
12052;SDS011;6087;48.982;12.064;2022-08-27T10:26:50;19.60;;;10.50;;
12052;SDS011;6087;48.982;12.064;2022-08-27T10:29:33;23.33;;;11.90;;
12052;SDS011;6087;48.982;12.064;2022-08-27T10:32:10;18.48;;;12.18;;
12052;SDS011;6087;48.982;12.064;2022-08-27T10:34:57;19.50;;;12.57;;
12052;SDS011;6087;48.982;12.064;2022-08-27T10:37:35;4.65;;;3.28;;
12052;SDS011;6087;48.982;12.064;2022-08-27T10:40:18;5.35;;;2.28;;
12052;SDS011;6087;48.982;12.064;2022-08-27T10:42:58;4.60;;;2.75;;
12052;SDS011;6087;48.982;12.064;2022-08-27T10:45:36;6.75;;;3.45;;
12052;SDS011;6087;48.982;12.064;2022-08-27T10:48:18;7.15;;;4.25;;
12052;SDS011;6087;48.982;12.064;2022-08-27T10:50:51;7.20;;;4.78;;
12052;SDS011;6087;48.982;12.064;2022-08-27T10:53:29;6.32;;;4.63;;
12052;SDS011;6087;48.982;12.064;2022-08-27T10:56:09;6.13;;;4.97;;
12052;SDS011;6087;48.982;12.064;2022-08-27T10:58:49;9.57;;;4.80;;
12052;SDS011;6087;48.982;12.064;2022-08-27T11:01:27;6.32;;;4.88;;
12052;SDS011;6087;48.982;12.064;2022-08-27T11:04:07;5.68;;;4.70;;
12052;SDS011;6087;48.982;12.064;2022-08-27T11:06:42;6.97;;;4.95;;
12052;SDS011;6087;48.982;12.064;2022-08-27T11:09:19;4.82;;;4.40;;
12052;SDS011;6087;48.982;12.064;2022-08-27T11:11:51;7.28;;;5.20;;
12052;SDS011;6087;48.982;12.064;2022-08-27T11:14:28;5.30;;;4.80;;
12052;SDS011;6087;48.982;12.064;2022-08-27T11:17:06;8.52;;;5.82;;
12052;SDS011;6087;48.982;12.064;2022-08-27T11:19:46;6.90;;;5.60;;
12052;SDS011;6087;48.982;12.064;2022-08-27T11:22:21;7.47;;;4.90;;
12052;SDS011;6087;48.982;12.064;2022-08-27T11:24:56;6.47;;;5.88;;
12052;SDS011;6087;48.982;12.064;2022-08-27T11:27:30;8.10;;;6.22;;
12052;SDS011;6087;48.982;12.064;2022-08-27T11:30:03;6.68;;;6.03;;
12052;SDS011;6087;48.982;12.064;2022-08-27T11:32:45;6.45;;;5.85;;
12052;SDS011;6087;48.982;12.064;2022-08-27T11:35:23;7.63;;;6.40;;
12052;SDS011;6087;48.982;12.064;2022-08-27T11:41:09;9.98;;;6.50;;
12052;SDS011;6087;48.982;12.064;2022-08-27T11:43:58;8.25;;;6.75;;
12052;SDS011;6087;48.982;12.064;2022-08-27T11:46:39;9.30;;;7.45;;
12052;SDS011;6087;48.982;12.064;2022-08-27T11:49:10;9.90;;;7.40;;
12052;SDS011;6087;48.982;12.064;2022-08-27T11:51:54;8.57;;;7.50;;
12052;SDS011;6087;48.982;12.064;2022-08-27T11:54:28;8.77;;;7.45;;
12052;SDS011;6087;48.982;12.064;2022-08-27T11:57:13;8.57;;;7.60;;
12052;SDS011;6087;48.982;12.064;2022-08-27T11:59:54;9.75;;;7.80;;
12052;SDS011;6087;48.982;12.064;2022-08-27T12:02:28;8.88;;;7.97;;
12052;SDS011;6087;48.982;12.064;2022-08-27T12:05:08;10.10;;;8.40;;
12052;SDS011;6087;48.982;12.064;2022-08-27T12:07:56;11.98;;;8.73;;
12052;SDS011;6087;48.982;12.064;2022-08-27T12:11:07;8.88;;;7.72;;
12052;SDS011;6087;48.982;12.064;2022-08-27T12:14:06;11.35;;;8.63;;
12052;SDS011;6087;48.982;12.064;2022-08-27T12:16:47;9.77;;;8.77;;
12052;SDS011;6087;48.982;12.064;2022-08-27T12:19:30;9.60;;;8.63;;
12052;SDS011;6087;48.982;12.064;2022-08-27T12:22:15;11.68;;;9.68;;
12052;SDS011;6087;48.982;12.064;2022-08-27T12:24:58;10.35;;;9.35;;
12052;SDS011;6087;48.982;12.064;2022-08-27T12:27:34;10.52;;;9.32;;
12052;SDS011;6087;48.982;12.064;2022-08-27T12:30:18;9.80;;;8.90;;
12052;SDS011;6087;48.982;12.064;2022-08-27T12:32:58;11.07;;;9.50;;
12052;SDS011;6087;48.982;12.064;2022-08-27T12:35:42;10.98;;;9.93;;
12052;SDS011;6087;48.982;12.064;2022-08-27T12:38:16;12.52;;;9.50;;
12052;SDS011;6087;48.982;12.064;2022-08-27T12:40:50;14.57;;;11.07;;
12052;SDS011;6087;48.982;12.064;2022-08-27T12:43:30;10.88;;;9.77;;
12052;SDS011;6087;48.982;12.064;2022-08-27T12:46:04;11.52;;;10.38;;
12052;SDS011;6087;48.982;12.064;2022-08-27T12:48:44;10.48;;;9.48;;
12052;SDS011;6087;48.982;12.064;2022-08-27T12:51:17;9.55;;;8.55;;
12052;SDS011;6087;48.982;12.064;2022-08-27T12:53:52;8.55;;;7.75;;
12052;SDS011;6087;48.982;12.064;2022-08-27T12:56:35;10.40;;;8.38;;
12052;SDS011;6087;48.982;12.064;2022-08-27T12:59:32;14.75;;;7.93;;
12052;SDS011;6087;48.982;12.064;2022-08-27T13:02:16;8.90;;;7.13;;
12052;SDS011;6087;48.982;12.064;2022-08-27T13:05:06;8.00;;;7.20;;
12052;SDS011;6087;48.982;12.064;2022-08-27T13:07:51;6.97;;;6.28;;
12052;SDS011;6087;48.982;12.064;2022-08-27T13:10:34;9.07;;;6.30;;
12052;SDS011;6087;48.982;12.064;2022-08-27T13:13:07;6.95;;;6.25;;
12052;SDS011;6087;48.982;12.064;2022-08-27T13:15:41;6.50;;;5.85;;
12052;SDS011;6087;48.982;12.064;2022-08-27T13:18:17;8.50;;;7.05;;
12052;SDS011;6087;48.982;12.064;2022-08-27T13:20:59;6.82;;;6.18;;
12052;SDS011;6087;48.982;12.064;2022-08-27T13:23:33;7.63;;;6.90;;
12052;SDS011;6087;48.982;12.064;2022-08-27T13:26:19;6.97;;;6.28;;
12052;SDS011;6087;48.982;12.064;2022-08-27T13:28:56;7.75;;;6.28;;
12052;SDS011;6087;48.982;12.064;2022-08-27T13:31:30;7.60;;;6.82;;
12052;SDS011;6087;48.982;12.064;2022-08-27T13:34:01;8.25;;;6.82;;
12052;SDS011;6087;48.982;12.064;2022-08-27T13:36:51;10.75;;;6.72;;
12052;SDS011;6087;48.982;12.064;2022-08-27T13:39:29;7.22;;;6.53;;
12052;SDS011;6087;48.982;12.064;2022-08-27T13:42:00;7.07;;;5.95;;
12052;SDS011;6087;48.982;12.064;2022-08-27T13:44:37;6.57;;;5.90;;
12052;SDS011;6087;48.982;12.064;2022-08-27T13:47:13;7.38;;;5.88;;
12052;SDS011;6087;48.982;12.064;2022-08-27T13:49:47;6.70;;;5.35;;
12052;SDS011;6087;48.982;12.064;2022-08-27T13:52:29;6.78;;;5.28;;
12052;SDS011;6087;48.982;12.064;2022-08-27T13:55:23;6.25;;;5.68;;
12052;SDS011;6087;48.982;12.064;2022-08-27T13:58:10;6.25;;;5.75;;
12052;SDS011;6087;48.982;12.064;2022-08-27T14:01:06;5.80;;;5.25;;
12052;SDS011;6087;48.982;12.064;2022-08-27T14:03:46;6.95;;;5.32;;
12052;SDS011;6087;48.982;12.064;2022-08-27T14:06:23;6.30;;;5.63;;
12052;SDS011;6087;48.982;12.064;2022-08-27T14:09:14;5.85;;;5.25;;
12052;SDS011;6087;48.982;12.064;2022-08-27T14:12:01;5.65;;;5.05;;
12052;SDS011;6087;48.982;12.064;2022-08-27T14:14:39;5.75;;;5.15;;
12052;SDS011;6087;48.982;12.064;2022-08-27T14:20:16;4.85;;;3.95;;
12052;SDS011;6087;48.982;12.064;2022-08-27T14:23:20;6.40;;;4.75;;
12052;SDS011;6087;48.982;12.064;2022-08-27T14:26:16;6.38;;;4.55;;
12052;SDS011;6087;48.982;12.064;2022-08-27T14:29:06;4.07;;;3.67;;
12052;SDS011;6087;48.982;12.064;2022-08-27T14:32:03;5.47;;;4.13;;
12052;SDS011;6087;48.982;12.064;2022-08-27T14:34:54;5.35;;;4.20;;
12052;SDS011;6087;48.982;12.064;2022-08-27T14:37:23;4.43;;;3.95;;
12052;SDS011;6087;48.982;12.064;2022-08-27T14:39:53;6.47;;;4.90;;
12052;SDS011;6087;48.982;12.064;2022-08-27T14:42:25;6.13;;;4.75;;
12052;SDS011;6087;48.982;12.064;2022-08-27T14:44:58;5.05;;;4.60;;
12052;SDS011;6087;48.982;12.064;2022-08-27T14:47:28;4.95;;;4.45;;
12052;SDS011;6087;48.982;12.064;2022-08-27T14:49:58;5.50;;;5.00;;
12052;SDS011;6087;48.982;12.064;2022-08-27T14:52:33;5.03;;;4.53;;
12052;SDS011;6087;48.982;12.064;2022-08-27T14:55:04;4.70;;;4.20;;
12052;SDS011;6087;48.982;12.064;2022-08-27T14:57:38;7.32;;;4.43;;
12052;SDS011;6087;48.982;12.064;2022-08-27T15:00:19;6.53;;;4.75;;
12052;SDS011;6087;48.982;12.064;2022-08-27T15:03:02;4.63;;;4.22;;
12052;SDS011;6087;48.982;12.064;2022-08-27T15:05:32;4.65;;;4.25;;
12052;SDS011;6087;48.982;12.064;2022-08-27T15:08:06;4.70;;;4.25;;
12052;SDS011;6087;48.982;12.064;2022-08-27T15:10:40;5.22;;;4.72;;
12052;SDS011;6087;48.982;12.064;2022-08-27T15:13:08;4.68;;;4.15;;
12052;SDS011;6087;48.982;12.064;2022-08-27T15:15:43;5.97;;;5.30;;
12052;SDS011;6087;48.982;12.064;2022-08-27T15:18:12;6.05;;;5.47;;
12052;SDS011;6087;48.982;12.064;2022-08-27T15:20:44;8.13;;;5.43;;
12052;SDS011;6087;48.982;12.064;2022-08-27T15:23:17;5.38;;;4.88;;
12052;SDS011;6087;48.982;12.064;2022-08-27T15:25:48;6.10;;;5.53;;
12052;SDS011;6087;48.982;12.064;2022-08-27T15:28:23;5.50;;;5.00;;
12052;SDS011;6087;48.982;12.064;2022-08-27T15:30:55;6.13;;;5.53;;
12052;SDS011;6087;48.982;12.064;2022-08-27T15:33:23;6.68;;;5.68;;
12052;SDS011;6087;48.982;12.064;2022-08-27T15:35:55;5.57;;;5.00;;
12052;SDS011;6087;48.982;12.064;2022-08-27T15:38:30;6.43;;;5.22;;
12052;SDS011;6087;48.982;12.064;2022-08-27T15:41:06;6.93;;;5.28;;
12052;SDS011;6087;48.982;12.064;2022-08-27T15:43:38;7.28;;;5.30;;
12052;SDS011;6087;48.982;12.064;2022-08-27T15:46:20;5.93;;;5.25;;
12052;SDS011;6087;48.982;12.064;2022-08-27T15:49:08;8.45;;;5.95;;
12052;SDS011;6087;48.982;12.064;2022-08-27T15:51:44;6.63;;;5.28;;
12052;SDS011;6087;48.982;12.064;2022-08-27T15:54:19;8.23;;;5.30;;
12052;SDS011;6087;48.982;12.064;2022-08-27T15:56:53;5.80;;;5.32;;
12052;SDS011;6087;48.982;12.064;2022-08-27T15:59:24;6.45;;;5.20;;
12052;SDS011;6087;48.982;12.064;2022-08-27T16:02:13;5.60;;;5.05;;
12052;SDS011;6087;48.982;12.064;2022-08-27T16:04:52;5.57;;;4.25;;
12052;SDS011;6087;48.982;12.064;2022-08-27T16:07:22;6.40;;;4.72;;
12052;SDS011;6087;48.982;12.064;2022-08-27T16:10:13;5.30;;;4.80;;
12052;SDS011;6087;48.982;12.064;2022-08-27T16:12:49;7.95;;;4.63;;
12052;SDS011;6087;48.982;12.064;2022-08-27T16:15:25;6.35;;;5.40;;
12052;SDS011;6087;48.982;12.064;2022-08-27T16:18:07;5.25;;;4.70;;
12052;SDS011;6087;48.982;12.064;2022-08-27T16:20:48;7.57;;;5.03;;
12052;SDS011;6087;48.982;12.064;2022-08-27T16:23:24;7.25;;;4.72;;
12052;SDS011;6087;48.982;12.064;2022-08-27T16:26:03;6.30;;;5.13;;
12052;SDS011;6087;48.982;12.064;2022-08-27T16:28:33;4.80;;;4.13;;
12052;SDS011;6087;48.982;12.064;2022-08-27T16:31:06;5.38;;;4.88;;
12052;SDS011;6087;48.982;12.064;2022-08-27T16:33:41;4.90;;;4.50;;
12052;SDS011;6087;48.982;12.064;2022-08-27T16:36:14;5.07;;;4.55;;